sensor_id;sensor_type;location;lat;lon;timestamp;pressure;altitude;pressure_sealevel;temperature;humidity
15604;BME280;7902;49.042;9.092;2022-10-16T00:00:39;98910.59;;;19.26;69.92
15604;BME280;7902;49.042;9.092;2022-10-16T00:03:06;98912.44;;;19.26;70.63
15604;BME280;7902;49.042;9.092;2022-10-16T00:05:33;98915.44;;;19.23;70.46
15604;BME280;7902;49.042;9.092;2022-10-16T00:07:59;98917.75;;;19.26;70.35
15604;BME280;7902;49.042;9.092;2022-10-16T00:10:24;98907.81;;;19.20;70.77
15604;BME280;7902;49.042;9.092;2022-10-16T00:12:50;98899.16;;;19.18;69.86
15604;BME280;7902;49.042;9.092;2022-10-16T00:15:16;98894.19;;;19.15;70.24
15604;BME280;7902;49.042;9.092;2022-10-16T00:17:42;98893.84;;;19.18;69.82
15604;BME280;7902;49.042;9.092;2022-10-16T00:20:08;98900.53;;;19.06;70.50
15604;BME280;7902;49.042;9.092;2022-10-16T00:22:34;98897.34;;;19.10;70.40
15604;BME280;7902;49.042;9.092;2022-10-16T00:25:00;98900.16;;;19.17;70.19
15604;BME280;7902;49.042;9.092;2022-10-16T00:27:26;98901.19;;;19.16;70.02
15604;BME280;7902;49.042;9.092;2022-10-16T00:29:52;98901.97;;;19.16;69.86
15604;BME280;7902;49.042;9.092;2022-10-16T00:32:19;98906.81;;;19.13;69.83
15604;BME280;7902;49.042;9.092;2022-10-16T00:34:45;98912.50;;;19.10;69.86
15604;BME280;7902;49.042;9.092;2022-10-16T00:37:12;98918.66;;;19.10;70.06
15604;BME280;7902;49.042;9.092;2022-10-16T00:39:38;98921.13;;;19.12;69.66
15604;BME280;7902;49.042;9.092;2022-10-16T00:42:04;98918.47;;;19.12;69.95
15604;BME280;7902;49.042;9.092;2022-10-16T00:44:47;98919.50;;;19.11;70.42
15604;BME280;7902;49.042;9.092;2022-10-16T00:47:24;98917.81;;;19.10;70.07
15604;BME280;7902;49.042;9.092;2022-10-16T00:49:58;98909.69;;;19.11;70.09
15604;BME280;7902;49.042;9.092;2022-10-16T00:52:25;98920.31;;;19.11;69.65
15604;BME280;7902;49.042;9.092;2022-10-16T00:54:52;98920.63;;;19.08;69.60
15604;BME280;7902;49.042;9.092;2022-10-16T00:57:19;98913.50;;;19.09;70.41
15604;BME280;7902;49.042;9.092;2022-10-16T00:59:45;98913.84;;;19.06;70.14
15604;BME280;7902;49.042;9.092;2022-10-16T01:02:14;98922.13;;;19.03;70.88
15604;BME280;7902;49.042;9.092;2022-10-16T01:04:48;98913.16;;;19.04;70.31
15604;BME280;7902;49.042;9.092;2022-10-16T01:18:27;98908.50;;;19.06;70.13
15604;BME280;7902;49.042;9.092;2022-10-16T01:21:22;98904.34;;;19.11;69.42
15604;BME280;7902;49.042;9.092;2022-10-16T01:32:40;98915.97;;;19.02;70.36
15604;BME280;7902;49.042;9.092;2022-10-16T01:35:14;98918.34;;;18.97;70.13
15604;BME280;7902;49.042;9.092;2022-10-16T01:40:44;98928.47;;;18.94;70.46
15604;BME280;7902;49.042;9.092;2022-10-16T01:43:14;98934.81;;;19.01;70.41
15604;BME280;7902;49.042;9.092;2022-10-16T01:45:42;98926.13;;;18.99;70.74
15604;BME280;7902;49.042;9.092;2022-10-16T01:48:12;98924.81;;;19.03;70.09
15604;BME280;7902;49.042;9.092;2022-10-16T01:50:41;98917.16;;;19.00;70.32
15604;BME280;7902;49.042;9.092;2022-10-16T01:53:11;98915.84;;;18.96;70.37
15604;BME280;7902;49.042;9.092;2022-10-16T01:55:45;98916.50;;;18.98;70.29
15604;BME280;7902;49.042;9.092;2022-10-16T01:58:13;98908.50;;;18.98;70.35
15604;BME280;7902;49.042;9.092;2022-10-16T02:00:42;98909.53;;;18.97;70.49
15604;BME280;7902;49.042;9.092;2022-10-16T02:03:11;98904.38;;;18.95;71.21
15604;BME280;7902;49.042;9.092;2022-10-16T02:05:41;98912.50;;;18.94;70.74
15604;BME280;7902;49.042;9.092;2022-10-16T02:08:09;98909.53;;;18.89;71.01
15604;BME280;7902;49.042;9.092;2022-10-16T02:10:36;98913.19;;;18.96;70.18
15604;BME280;7902;49.042;9.092;2022-10-16T02:13:07;98915.84;;;18.96;70.97
15604;BME280;7902;49.042;9.092;2022-10-16T02:15:35;98913.50;;;19.01;71.16
15604;BME280;7902;49.042;9.092;2022-10-16T02:18:02;98919.16;;;19.06;69.89
15604;BME280;7902;49.042;9.092;2022-10-16T02:20:34;98916.34;;;18.99;70.58
15604;BME280;7902;49.042;9.092;2022-10-16T02:23:03;98920.50;;;19.02;70.04
15604;BME280;7902;49.042;9.092;2022-10-16T02:25:35;98918.13;;;19.15;69.33
15604;BME280;7902;49.042;9.092;2022-10-16T02:28:07;98917.50;;;19.05;70.75
15604;BME280;7902;49.042;9.092;2022-10-16T02:30:42;98917.16;;;19.16;69.42
15604;BME280;7902;49.042;9.092;2022-10-16T02:33:11;98919.97;;;19.14;69.45
15604;BME280;7902;49.042;9.092;2022-10-16T02:35:44;98923.63;;;19.13;69.95
15604;BME280;7902;49.042;9.092;2022-10-16T02:38:11;98923.97;;;19.10;68.79
15604;BME280;7902;49.042;9.092;2022-10-16T02:40:38;98928.13;;;19.13;71.24
15604;BME280;7902;49.042;9.092;2022-10-16T02:43:05;98916.00;;;19.10;69.57
15604;BME280;7902;49.042;9.092;2022-10-16T02:45:31;98927.13;;;19.14;69.85
15604;BME280;7902;49.042;9.092;2022-10-16T02:47:56;98932.44;;;19.14;70.00
15604;BME280;7902;49.042;9.092;2022-10-16T02:50:22;98933.09;;;19.08;70.31
15604;BME280;7902;49.042;9.092;2022-10-16T02:52:49;98930.47;;;19.16;69.79
15604;BME280;7902;49.042;9.092;2022-10-16T02:55:15;98925.13;;;19.08;70.16
15604;BME280;7902;49.042;9.092;2022-10-16T02:57:42;98936.44;;;19.10;69.94
15604;BME280;7902;49.042;9.092;2022-10-16T03:00:09;98947.56;;;19.13;69.69
15604;BME280;7902;49.042;9.092;2022-10-16T03:02:37;98949.25;;;19.14;69.83
15604;BME280;7902;49.042;9.092;2022-10-16T03:05:03;98939.94;;;19.10;70.72
15604;BME280;7902;49.042;9.092;2022-10-16T03:07:29;98931.75;;;19.12;69.57
15604;BME280;7902;49.042;9.092;2022-10-16T03:09:55;98933.78;;;19.10;70.02
15604;BME280;7902;49.042;9.092;2022-10-16T03:12:21;98934.13;;;19.07;69.44
15604;BME280;7902;49.042;9.092;2022-10-16T03:14:47;98933.44;;;19.13;69.29
15604;BME280;7902;49.042;9.092;2022-10-16T03:17:13;98930.81;;;19.05;69.51
15604;BME280;7902;49.042;9.092;2022-10-16T03:19:42;98926.47;;;19.04;70.56
15604;BME280;7902;49.042;9.092;2022-10-16T03:22:08;98927.28;;;19.12;70.22
15604;BME280;7902;49.042;9.092;2022-10-16T03:24:34;98938.75;;;19.13;69.42
15604;BME280;7902;49.042;9.092;2022-10-16T03:27:00;98943.94;;;19.14;69.73
15604;BME280;7902;49.042;9.092;2022-10-16T03:29:26;98943.09;;;19.14;70.37
15604;BME280;7902;49.042;9.092;2022-10-16T03:31:53;98944.09;;;19.13;69.96
15604;BME280;7902;49.042;9.092;2022-10-16T03:34:19;98942.41;;;19.12;70.04
15604;BME280;7902;49.042;9.092;2022-10-16T03:36:45;98945.59;;;19.15;69.61
15604;BME280;7902;49.042;9.092;2022-10-16T03:39:10;98943.94;;;19.14;70.04
15604;BME280;7902;49.042;9.092;2022-10-16T03:41:36;98948.41;;;19.14;69.79
15604;BME280;7902;49.042;9.092;2022-10-16T03:44:02;98940.44;;;19.14;69.55
15604;BME280;7902;49.042;9.092;2022-10-16T03:46:28;98936.78;;;19.15;69.82
15604;BME280;7902;49.042;9.092;2022-10-16T03:48:55;98944.44;;;19.10;69.20
15604;BME280;7902;49.042;9.092;2022-10-16T03:51:21;98929.94;;;19.12;68.86
15604;BME280;7902;49.042;9.092;2022-10-16T03:53:47;98941.41;;;19.13;69.59
15604;BME280;7902;49.042;9.092;2022-10-16T03:56:12;98941.25;;;19.14;69.72
15604;BME280;7902;49.042;9.092;2022-10-16T03:58:38;98944.75;;;19.15;69.25
15604;BME280;7902;49.042;9.092;2022-10-16T04:01:04;98941.63;;;19.11;69.19
15604;BME280;7902;49.042;9.092;2022-10-16T04:03:30;98940.06;;;19.17;69.39
15604;BME280;7902;49.042;9.092;2022-10-16T04:05:56;98933.94;;;19.08;70.00
15604;BME280;7902;49.042;9.092;2022-10-16T04:08:22;98934.13;;;19.07;68.94
15604;BME280;7902;49.042;9.092;2022-10-16T04:10:48;98944.09;;;19.05;69.86
15604;BME280;7902;49.042;9.092;2022-10-16T04:13:14;98944.28;;;19.11;69.40
15604;BME280;7902;49.042;9.092;2022-10-16T04:15:40;98947.75;;;19.12;69.83
15604;BME280;7902;49.042;9.092;2022-10-16T04:18:06;98952.06;;;19.13;69.33
15604;BME280;7902;49.042;9.092;2022-10-16T04:20:33;98952.41;;;19.10;69.59
15604;BME280;7902;49.042;9.092;2022-10-16T04:22:59;98948.56;;;19.12;69.24
15604;BME280;7902;49.042;9.092;2022-10-16T04:25:25;98948.09;;;19.09;69.21
15604;BME280;7902;49.042;9.092;2022-10-16T04:27:54;98951.44;;;19.11;69.28
15604;BME280;7902;49.042;9.092;2022-10-16T04:30:21;98952.25;;;19.11;69.05
15604;BME280;7902;49.042;9.092;2022-10-16T04:32:48;98961.56;;;18.99;70.33
15604;BME280;7902;49.042;9.092;2022-10-16T04:35:16;98958.72;;;19.09;69.82
15604;BME280;7902;49.042;9.092;2022-10-16T04:37:42;98964.72;;;19.03;69.86
15604;BME280;7902;49.042;9.092;2022-10-16T04:40:08;98962.91;;;19.11;69.61
15604;BME280;7902;49.042;9.092;2022-10-16T04:42:34;98966.06;;;19.07;69.63
15604;BME280;7902;49.042;9.092;2022-10-16T04:45:00;98966.56;;;19.10;69.33
15604;BME280;7902;49.042;9.092;2022-10-16T04:47:26;98966.88;;;19.07;68.86
15604;BME280;7902;49.042;9.092;2022-10-16T04:49:52;98975.38;;;19.11;69.10
15604;BME280;7902;49.042;9.092;2022-10-16T04:52:18;98983.69;;;19.08;69.42
15604;BME280;7902;49.042;9.092;2022-10-16T04:54:44;98978.88;;;19.11;69.17
15604;BME280;7902;49.042;9.092;2022-10-16T04:57:11;98977.38;;;19.09;69.03
15604;BME280;7902;49.042;9.092;2022-10-16T04:59:37;98980.19;;;19.07;68.97
15604;BME280;7902;49.042;9.092;2022-10-16T05:02:03;98987.00;;;19.10;68.82
15604;BME280;7902;49.042;9.092;2022-10-16T05:04:29;98980.03;;;19.09;69.06
15604;BME280;7902;49.042;9.092;2022-10-16T05:06:55;98979.03;;;19.02;68.89
15604;BME280;7902;49.042;9.092;2022-10-16T05:09:20;98985.16;;;19.02;69.61
15604;BME280;7902;49.042;9.092;2022-10-16T05:11:47;98994.00;;;18.95;69.91
15604;BME280;7902;49.042;9.092;2022-10-16T05:14:13;98988.34;;;18.98;69.60
15604;BME280;7902;49.042;9.092;2022-10-16T05:16:38;98984.03;;;19.05;69.85
15604;BME280;7902;49.042;9.092;2022-10-16T05:19:04;98985.34;;;19.01;69.50
15604;BME280;7902;49.042;9.092;2022-10-16T05:21:30;98990.50;;;19.02;69.15
15604;BME280;7902;49.042;9.092;2022-10-16T05:23:56;98992.00;;;19.05;69.75
15604;BME280;7902;49.042;9.092;2022-10-16T05:26:22;98989.34;;;19.05;69.80
15604;BME280;7902;49.042;9.092;2022-10-16T05:28:49;98992.00;;;19.05;69.82
15604;BME280;7902;49.042;9.092;2022-10-16T05:31:15;98985.84;;;19.04;69.33
15604;BME280;7902;49.042;9.092;2022-10-16T05:33:41;98988.03;;;19.01;69.36
15604;BME280;7902;49.042;9.092;2022-10-16T05:36:08;98980.03;;;19.01;69.61
15604;BME280;7902;49.042;9.092;2022-10-16T05:38:36;98976.72;;;19.07;68.97
15604;BME280;7902;49.042;9.092;2022-10-16T05:41:04;98979.03;;;19.02;69.72
15604;BME280;7902;49.042;9.092;2022-10-16T05:43:31;98983.00;;;18.98;71.00
15604;BME280;7902;49.042;9.092;2022-10-16T05:46:00;98988.03;;;19.01;69.55
15604;BME280;7902;49.042;9.092;2022-10-16T05:48:26;98989.69;;;19.02;70.35
15604;BME280;7902;49.042;9.092;2022-10-16T05:50:59;98988.03;;;19.01;70.11
15604;BME280;7902;49.042;9.092;2022-10-16T05:53:27;98993.00;;;18.96;70.80
15604;BME280;7902;49.042;9.092;2022-10-16T05:55:56;99001.47;;;18.99;70.23
15604;BME280;7902;49.042;9.092;2022-10-16T05:58:25;99013.63;;;19.02;69.42
15604;BME280;7902;49.042;9.092;2022-10-16T06:00:55;99016.81;;;18.97;69.75
15604;BME280;7902;49.042;9.092;2022-10-16T06:03:22;99014.94;;;18.98;70.04
15604;BME280;7902;49.042;9.092;2022-10-16T06:05:48;99018.63;;;18.97;69.40
15604;BME280;7902;49.042;9.092;2022-10-16T06:08:14;99017.94;;;18.95;70.51
15604;BME280;7902;49.042;9.092;2022-10-16T06:10:40;99016.97;;;18.96;69.84
15604;BME280;7902;49.042;9.092;2022-10-16T06:13:06;99015.63;;;19.00;69.66
15604;BME280;7902;49.042;9.092;2022-10-16T06:15:32;99005.16;;;18.90;70.80
15604;BME280;7902;49.042;9.092;2022-10-16T06:17:58;99009.47;;;18.91;70.96
15604;BME280;7902;49.042;9.092;2022-10-16T06:20:24;99014.31;;;18.96;69.90
15604;BME280;7902;49.042;9.092;2022-10-16T06:22:49;99017.13;;;18.94;69.46
15604;BME280;7902;49.042;9.092;2022-10-16T06:25:15;98996.00;;;18.93;69.80
15604;BME280;7902;49.042;9.092;2022-10-16T06:27:41;99003.31;;;18.99;69.25
15604;BME280;7902;49.042;9.092;2022-10-16T06:30:08;99005.81;;;19.00;69.62
15604;BME280;7902;49.042;9.092;2022-10-16T06:32:34;99018.28;;;19.00;69.87
15604;BME280;7902;49.042;9.092;2022-10-16T06:34:59;99022.13;;;19.05;69.66
15604;BME280;7902;49.042;9.092;2022-10-16T06:37:26;99027.75;;;19.02;69.72
15604;BME280;7902;49.042;9.092;2022-10-16T06:39:52;99027.75;;;19.02;70.11
15604;BME280;7902;49.042;9.092;2022-10-16T06:42:19;99038.59;;;19.01;69.64
15604;BME280;7902;49.042;9.092;2022-10-16T06:44:45;99047.22;;;19.03;70.05
15604;BME280;7902;49.042;9.092;2022-10-16T06:47:11;99052.38;;;19.04;69.68
15604;BME280;7902;49.042;9.092;2022-10-16T06:49:36;99052.53;;;19.03;70.07
15604;BME280;7902;49.042;9.092;2022-10-16T06:52:03;99056.88;;;19.04;69.68
15604;BME280;7902;49.042;9.092;2022-10-16T06:54:29;99053.56;;;19.02;70.06
15604;BME280;7902;49.042;9.092;2022-10-16T06:56:55;99052.53;;;19.03;70.41
15604;BME280;7902;49.042;9.092;2022-10-16T06:59:21;99068.34;;;19.04;69.75
15604;BME280;7902;49.042;9.092;2022-10-16T07:01:47;99063.88;;;19.05;69.77
15604;BME280;7902;49.042;9.092;2022-10-16T07:04:13;99076.84;;;19.00;70.44
15604;BME280;7902;49.042;9.092;2022-10-16T07:06:39;99082.84;;;19.02;70.25
15604;BME280;7902;49.042;9.092;2022-10-16T07:09:08;99089.44;;;18.98;69.93
15604;BME280;7902;49.042;9.092;2022-10-16T07:11:36;99089.44;;;18.98;70.24
15604;BME280;7902;49.042;9.092;2022-10-16T07:14:02;99089.63;;;19.04;69.68
15604;BME280;7902;49.042;9.092;2022-10-16T07:16:31;99089.50;;;19.06;70.70
15604;BME280;7902;49.042;9.092;2022-10-16T07:18:59;99085.50;;;19.02;70.98
15604;BME280;7902;49.042;9.092;2022-10-16T07:21:27;99089.31;;;18.99;70.38
15604;BME280;7902;49.042;9.092;2022-10-16T07:23:56;99089.81;;;19.11;70.04
15604;BME280;7902;49.042;9.092;2022-10-16T07:26:23;99092.78;;;19.08;70.24
15604;BME280;7902;49.042;9.092;2022-10-16T07:28:50;99088.31;;;19.00;70.42
15604;BME280;7902;49.042;9.092;2022-10-16T07:31:17;99086.63;;;18.99;69.88
15604;BME280;7902;49.042;9.092;2022-10-16T07:33:45;99089.16;;;19.09;70.12
15604;BME280;7902;49.042;9.092;2022-10-16T07:36:12;99092.78;;;19.00;69.71
15604;BME280;7902;49.042;9.092;2022-10-16T07:38:38;99089.31;;;18.99;70.54
15604;BME280;7902;49.042;9.092;2022-10-16T07:41:06;99096.47;;;19.07;69.83
15604;BME280;7902;49.042;9.092;2022-10-16T07:43:33;99100.78;;;19.08;70.09
15604;BME280;7902;49.042;9.092;2022-10-16T07:45:59;99101.63;;;19.08;70.29
15604;BME280;7902;49.042;9.092;2022-10-16T07:48:31;99108.28;;;19.12;70.29
15604;BME280;7902;49.042;9.092;2022-10-16T07:50:58;99107.78;;;19.09;70.24
15604;BME280;7902;49.042;9.092;2022-10-16T07:53:25;99115.25;;;19.05;70.63
15604;BME280;7902;49.042;9.092;2022-10-16T07:55:51;99118.41;;;19.01;71.03
15604;BME280;7902;49.042;9.092;2022-10-16T07:58:17;99125.06;;;19.13;69.65
15604;BME280;7902;49.042;9.092;2022-10-16T08:00:43;99123.94;;;19.15;70.38
15604;BME280;7902;49.042;9.092;2022-10-16T08:03:09;99127.59;;;19.14;69.42
15604;BME280;7902;49.042;9.092;2022-10-16T08:05:35;99124.75;;;19.16;70.69
15604;BME280;7902;49.042;9.092;2022-10-16T08:08:01;99127.78;;;19.21;70.02
15604;BME280;7902;49.042;9.092;2022-10-16T08:10:28;99133.09;;;19.29;70.09
15604;BME280;7902;49.042;9.092;2022-10-16T08:12:54;99128.41;;;19.31;69.15
15604;BME280;7902;49.042;9.092;2022-10-16T08:15:20;99133.75;;;19.31;70.36
15604;BME280;7902;49.042;9.092;2022-10-16T08:18:00;99133.25;;;19.27;70.37
15604;BME280;7902;49.042;9.092;2022-10-16T08:20:28;99142.56;;;19.32;70.76
15604;BME280;7902;49.042;9.092;2022-10-16T08:22:54;99143.94;;;19.44;69.71
15604;BME280;7902;49.042;9.092;2022-10-16T08:25:21;99145.59;;;19.45;70.31
15604;BME280;7902;49.042;9.092;2022-10-16T08:27:48;99150.13;;;19.44;69.71
15604;BME280;7902;49.042;9.092;2022-10-16T08:30:13;99148.94;;;19.47;69.69
15604;BME280;7902;49.042;9.092;2022-10-16T08:32:40;99152.91;;;19.51;69.99
15604;BME280;7902;49.042;9.092;2022-10-16T08:35:09;99151.25;;;19.50;70.24
15604;BME280;7902;49.042;9.092;2022-10-16T08:37:35;99143.44;;;19.56;70.64
15604;BME280;7902;49.042;9.092;2022-10-16T08:40:02;99155.28;;;19.54;70.11
15604;BME280;7902;49.042;9.092;2022-10-16T08:48:08;99156.09;;;19.70;69.77
15604;BME280;7902;49.042;9.092;2022-10-16T08:50:38;99151.25;;;19.74;70.22
15604;BME280;7902;49.042;9.092;2022-10-16T08:53:05;99155.09;;;19.71;70.65
15604;BME280;7902;49.042;9.092;2022-10-16T08:55:52;99152.44;;;19.71;70.42
15604;BME280;7902;49.042;9.092;2022-10-16T08:58:20;99154.25;;;19.71;70.30
15604;BME280;7902;49.042;9.092;2022-10-16T09:00:56;99156.06;;;19.79;70.05
15604;BME280;7902;49.042;9.092;2022-10-16T09:06:21;99159.38;;;19.89;69.86
15604;BME280;7902;49.042;9.092;2022-10-16T09:09:27;99168.72;;;19.85;69.65
15604;BME280;7902;49.042;9.092;2022-10-16T09:20:12;99182.19;;;19.99;69.54
15604;BME280;7902;49.042;9.092;2022-10-16T09:22:39;99189.69;;;20.04;69.46
15604;BME280;7902;49.042;9.092;2022-10-16T09:25:20;99184.72;;;20.01;69.83
15604;BME280;7902;49.042;9.092;2022-10-16T09:27:48;99196.03;;;20.03;69.87
15604;BME280;7902;49.042;9.092;2022-10-16T09:30:19;99204.50;;;20.06;69.29
15604;BME280;7902;49.042;9.092;2022-10-16T09:32:48;99203.34;;;20.09;69.48
15604;BME280;7902;49.042;9.092;2022-10-16T09:35:18;99195.66;;;20.06;69.47
15604;BME280;7902;49.042;9.092;2022-10-16T09:37:48;99202.84;;;20.13;69.89
15604;BME280;7902;49.042;9.092;2022-10-16T09:43:41;99210.97;;;20.20;69.86
15604;BME280;7902;49.042;9.092;2022-10-16T09:45:41;99203.81;;;20.21;69.25
15604;BME280;7902;49.042;9.092;2022-10-16T09:48:11;99216.47;;;20.27;69.53
15604;BME280;7902;49.042;9.092;2022-10-16T09:50:37;99216.66;;;20.33;69.24
15604;BME280;7902;49.042;9.092;2022-10-16T09:53:14;99208.16;;;20.38;69.63
15604;BME280;7902;49.042;9.092;2022-10-16T09:55:50;99209.78;;;20.39;69.75
15604;BME280;7902;49.042;9.092;2022-10-16T09:58:16;99206.63;;;20.51;69.52
15604;BME280;7902;49.042;9.092;2022-10-16T10:00:49;99217.78;;;20.55;70.30
15604;BME280;7902;49.042;9.092;2022-10-16T10:03:33;99225.56;;;20.65;69.53
15604;BME280;7902;49.042;9.092;2022-10-16T10:06:03;99213.22;;;20.72;69.57
15604;BME280;7902;49.042;9.092;2022-10-16T10:08:30;99212.50;;;20.78;69.99
15604;BME280;7902;49.042;9.092;2022-10-16T10:10:56;99225.16;;;20.84;68.78
15604;BME280;7902;49.042;9.092;2022-10-16T10:13:24;99222.75;;;20.97;68.56
15604;BME280;7902;49.042;9.092;2022-10-16T10:15:51;99220.41;;;21.02;68.24
15604;BME280;7902;49.042;9.092;2022-10-16T10:18:21;99225.59;;;21.03;68.38
15604;BME280;7902;49.042;9.092;2022-10-16T10:21:00;99227.03;;;21.14;68.31
15604;BME280;7902;49.042;9.092;2022-10-16T10:23:28;99230.31;;;21.24;67.58
15604;BME280;7902;49.042;9.092;2022-10-16T10:26:20;99231.16;;;21.25;68.22
15604;BME280;7902;49.042;9.092;2022-10-16T10:31:29;99227.31;;;21.27;67.80
15604;BME280;7902;49.042;9.092;2022-10-16T10:36:52;99220.63;;;21.31;68.40
15604;BME280;7902;49.042;9.092;2022-10-16T10:39:32;99222.22;;;21.40;67.77
15604;BME280;7902;49.042;9.092;2022-10-16T10:47:36;99239.38;;;21.46;67.49
15604;BME280;7902;49.042;9.092;2022-10-16T10:50:17;99239.50;;;21.53;67.09
15604;BME280;7902;49.042;9.092;2022-10-16T10:55:39;99249.41;;;21.44;67.25
15604;BME280;7902;49.042;9.092;2022-10-16T11:01:01;99229.84;;;21.52;67.16
15604;BME280;7902;49.042;9.092;2022-10-16T11:06:33;99234.81;;;21.55;66.80
15604;BME280;7902;49.042;9.092;2022-10-16T11:09:09;99235.75;;;21.62;66.08
15604;BME280;7902;49.042;9.092;2022-10-16T11:14:19;99231.00;;;21.72;66.42
15604;BME280;7902;49.042;9.092;2022-10-16T11:16:58;99243.38;;;21.73;66.39
15604;BME280;7902;49.042;9.092;2022-10-16T11:25:11;99221.75;;;21.82;66.39
15604;BME280;7902;49.042;9.092;2022-10-16T11:30:30;99213.84;;;21.89;66.47
15604;BME280;7902;49.042;9.092;2022-10-16T11:36:07;99208.28;;;21.99;65.00
15604;BME280;7902;49.042;9.092;2022-10-16T11:39:02;99217.47;;;21.96;65.05
15604;BME280;7902;49.042;9.092;2022-10-16T11:41:37;99227.53;;;21.94;64.58
15604;BME280;7902;49.042;9.092;2022-10-16T11:49:36;99232.97;;;22.01;65.13
15604;BME280;7902;49.042;9.092;2022-10-16T11:52:19;99229.75;;;22.05;65.46
15604;BME280;7902;49.042;9.092;2022-10-16T11:54:59;99233.00;;;22.15;64.43
15604;BME280;7902;49.042;9.092;2022-10-16T11:57:31;99234.75;;;22.23;64.66
15604;BME280;7902;49.042;9.092;2022-10-16T12:07:36;99226.56;;;22.24;64.34
15604;BME280;7902;49.042;9.092;2022-10-16T12:10:19;99227.41;;;22.40;63.75
15604;BME280;7902;49.042;9.092;2022-10-16T12:12:45;99225.19;;;22.28;63.92
15604;BME280;7902;49.042;9.092;2022-10-16T12:17:49;99228.34;;;22.61;62.81
15604;BME280;7902;49.042;9.092;2022-10-16T12:20:31;99225.56;;;22.69;61.84
15604;BME280;7902;49.042;9.092;2022-10-16T12:23:03;99225.75;;;22.68;61.44
15604;BME280;7902;49.042;9.092;2022-10-16T12:25:33;99228.09;;;22.71;62.47
15604;BME280;7902;49.042;9.092;2022-10-16T12:30:42;99223.25;;;22.66;63.01
15604;BME280;7902;49.042;9.092;2022-10-16T12:35:46;99219.47;;;22.61;63.45
15604;BME280;7902;49.042;9.092;2022-10-16T12:38:27;99215.72;;;22.70;62.88
15604;BME280;7902;49.042;9.092;2022-10-16T12:40:58;99218.09;;;22.65;64.14
15604;BME280;7902;49.042;9.092;2022-10-16T12:43:36;99223.38;;;22.73;63.26
15604;BME280;7902;49.042;9.092;2022-10-16T12:48:36;99208.88;;;22.82;63.44
15604;BME280;7902;49.042;9.092;2022-10-16T12:53:59;99208.94;;;22.89;63.27
15604;BME280;7902;49.042;9.092;2022-10-16T12:59:19;99206.94;;;22.91;63.18
15604;BME280;7902;49.042;9.092;2022-10-16T13:09:59;99222.56;;;22.72;62.63
15604;BME280;7902;49.042;9.092;2022-10-16T13:13:02;99227.06;;;22.87;62.19
15604;BME280;7902;49.042;9.092;2022-10-16T13:18:17;99235.78;;;22.74;63.23
15604;BME280;7902;49.042;9.092;2022-10-16T13:23:30;99235.38;;;22.92;62.31
15604;BME280;7902;49.042;9.092;2022-10-16T13:26:12;99234.16;;;22.80;64.07
15604;BME280;7902;49.042;9.092;2022-10-16T13:28:40;99234.81;;;22.82;62.65
15604;BME280;7902;49.042;9.092;2022-10-16T13:31:15;99235.38;;;22.92;62.25
15604;BME280;7902;49.042;9.092;2022-10-16T13:33:47;99241.47;;;22.86;62.76
15604;BME280;7902;49.042;9.092;2022-10-16T13:36:22;99242.41;;;22.78;63.13
15604;BME280;7902;49.042;9.092;2022-10-16T13:38:59;99242.19;;;22.80;62.57
15604;BME280;7902;49.042;9.092;2022-10-16T13:41:26;99233.16;;;22.81;63.12
15604;BME280;7902;49.042;9.092;2022-10-16T13:43:53;99240.91;;;22.75;63.05
15604;BME280;7902;49.042;9.092;2022-10-16T13:46:23;99245.09;;;22.78;63.48
15604;BME280;7902;49.042;9.092;2022-10-16T13:49:03;99237.63;;;22.73;62.93
15604;BME280;7902;49.042;9.092;2022-10-16T13:51:30;99240.56;;;22.79;62.68
15604;BME280;7902;49.042;9.092;2022-10-16T13:53:57;99230.22;;;22.75;62.90
15604;BME280;7902;49.042;9.092;2022-10-16T13:56:29;99224.56;;;22.85;62.98
15604;BME280;7902;49.042;9.092;2022-10-16T14:01:31;99235.09;;;22.87;61.81
15604;BME280;7902;49.042;9.092;2022-10-16T14:04:06;99226.63;;;22.83;62.14
15604;BME280;7902;49.042;9.092;2022-10-16T14:06:33;99232.25;;;22.88;62.25
15604;BME280;7902;49.042;9.092;2022-10-16T14:09:02;99238.13;;;22.84;62.40
15604;BME280;7902;49.042;9.092;2022-10-16T14:11:31;99234.94;;;22.88;61.55
15604;BME280;7902;49.042;9.092;2022-10-16T14:13:58;99232.03;;;22.90;62.19
15604;BME280;7902;49.042;9.092;2022-10-16T14:16:30;99243.13;;;22.87;61.57
15604;BME280;7902;49.042;9.092;2022-10-16T14:19:00;99242.31;;;22.86;62.14
15604;BME280;7902;49.042;9.092;2022-10-16T14:21:27;99235.44;;;22.84;62.18
15604;BME280;7902;49.042;9.092;2022-10-16T14:23:54;99233.72;;;22.91;61.98
15604;BME280;7902;49.042;9.092;2022-10-16T14:26:22;99236.00;;;22.94;62.12
15604;BME280;7902;49.042;9.092;2022-10-16T14:29:01;99237.97;;;22.85;62.40
15604;BME280;7902;49.042;9.092;2022-10-16T14:31:31;99237.34;;;22.83;61.12
15604;BME280;7902;49.042;9.092;2022-10-16T14:33:59;99239.44;;;22.88;61.44
15604;BME280;7902;49.042;9.092;2022-10-16T14:36:27;99236.56;;;22.89;62.53
15604;BME280;7902;49.042;9.092;2022-10-16T14:39:27;99233.44;;;22.86;62.30
15604;BME280;7902;49.042;9.092;2022-10-16T14:41:47;99235.66;;;22.82;62.19
15604;BME280;7902;49.042;9.092;2022-10-16T14:44:14;99239.63;;;22.86;62.30
15604;BME280;7902;49.042;9.092;2022-10-16T14:46:43;99238.88;;;22.92;62.21
15604;BME280;7902;49.042;9.092;2022-10-16T14:51:40;99240.63;;;22.85;62.15
15604;BME280;7902;49.042;9.092;2022-10-16T14:54:08;99238.22;;;22.90;61.86
15604;BME280;7902;49.042;9.092;2022-10-16T14:56:51;99235.81;;;22.95;61.94
15604;BME280;7902;49.042;9.092;2022-10-16T14:59:34;99233.44;;;22.86;62.21
15604;BME280;7902;49.042;9.092;2022-10-16T15:02:20;99238.97;;;22.84;62.03
15604;BME280;7902;49.042;9.092;2022-10-16T15:04:48;99239.34;;;22.81;62.57
15604;BME280;7902;49.042;9.092;2022-10-16T15:07:15;99240.81;;;22.84;62.86
15604;BME280;7902;49.042;9.092;2022-10-16T15:09:40;99240.19;;;22.82;63.16
15604;BME280;7902;49.042;9.092;2022-10-16T15:12:06;99240.00;;;22.83;62.74
15604;BME280;7902;49.042;9.092;2022-10-16T15:14:32;99234.44;;;22.85;62.54
15604;BME280;7902;49.042;9.092;2022-10-16T15:16:59;99235.28;;;22.85;63.07
15604;BME280;7902;49.042;9.092;2022-10-16T15:19:25;99236.94;;;22.86;63.11
15604;BME280;7902;49.042;9.092;2022-10-16T15:21:51;99234.94;;;22.88;62.02
15604;BME280;7902;49.042;9.092;2022-10-16T15:24:18;99238.63;;;22.87;62.67